Time;durP1;ratioP1;P1;durP2;ratioP2;P2;SDS_P1;SDS_P2;PMS_P1;PMS_P2;Temp;Humidity;BMP_temperature;BMP_pressure;BME280_temperature;BME280_humidity;BME280_pressure;Samples;Min_cycle;Max_cycle;Signal;HPM_P1;HPM_P2
2021/09/10 00:00:23;;;;;;;1999.90;999.90;;;21.20;99.90;;;;;;5079047;28;20547;-83
2021/09/10 00:02:48;;;;;;;1999.90;999.90;;;21.10;99.90;;;;;;5077356;28;20289;-84
2021/09/10 00:05:14;;;;;;;1999.90;999.90;;;21.10;99.90;;;;;;5079234;28;20167;-83
2021/09/10 00:07:40;;;;;;;1999.90;999.90;;;21.10;99.90;;;;;;5079030;28;20184;-84
2021/09/10 00:10:09;;;;;;;1999.90;999.90;;;21.10;99.90;;;;;;5078639;28;20164;-84
2021/09/10 00:12:35;;;;;;;1999.90;999.90;;;21.10;99.90;;;;;;5078332;28;20210;-84
2021/09/10 00:15:02;;;;;;;1999.90;999.90;;;21.10;99.90;;;;;;5077477;28;20457;-84
2021/09/10 00:17:28;;;;;;;1999.90;999.90;;;21.10;99.90;;;;;;5078101;28;20517;-84
2021/09/10 00:19:53;;;;;;;1999.90;999.90;;;21.10;99.90;;;;;;5076964;28;20936;-83
2021/09/10 00:22:22;;;;;;;1999.90;999.90;;;21.10;99.90;;;;;;5077321;28;20246;-83
2021/09/10 00:24:48;;;;;;;1999.90;999.90;;;21.10;99.90;;;;;;5077625;28;20160;-84
2021/09/10 00:27:14;;;;;;;1999.90;999.90;;;21.10;99.90;;;;;;5078061;28;20429;-83
2021/09/10 00:29:41;;;;;;;1999.90;999.90;;;21.20;99.90;;;;;;5077063;28;20646;-83
2021/09/10 00:32:06;;;;;;;1999.90;999.90;;;21.20;99.90;;;;;;5076503;28;20180;-84
2021/09/10 00:34:32;;;;;;;1999.90;999.90;;;21.20;99.90;;;;;;5077068;28;20495;-84
2021/09/10 00:36:58;;;;;;;1999.90;999.90;;;21.20;99.90;;;;;;5077971;28;20274;-84
2021/09/10 00:39:23;;;;;;;1999.90;999.90;;;21.20;99.90;;;;;;5076978;28;20659;-84
2021/09/10 00:41:49;;;;;;;1999.90;999.90;;;21.20;99.90;;;;;;5078129;28;20164;-84
2021/09/10 00:44:15;;;;;;;1999.90;999.90;;;21.20;99.90;;;;;;5076694;28;20176;-84
2021/09/10 00:46:41;;;;;;;1999.90;999.90;;;21.20;99.90;;;;;;5078790;28;20228;-84
2021/09/10 00:49:08;;;;;;;1999.90;999.90;;;21.10;99.90;;;;;;5076591;28;20596;-84
2021/09/10 00:51:34;;;;;;;1999.90;999.90;;;21.10;99.90;;;;;;5077423;28;20416;-83
2021/09/10 00:53:59;;;;;;;1999.90;999.90;;;21.00;99.90;;;;;;5078382;28;20824;-83
2021/09/10 00:56:26;;;;;;;1999.90;999.90;;;21.00;99.90;;;;;;5078665;28;20709;-84
2021/09/10 00:58:53;;;;;;;1999.90;999.90;;;21.00;99.90;;;;;;5076935;28;20175;-84
2021/09/10 01:01:18;;;;;;;1999.90;999.90;;;21.00;99.90;;;;;;5077717;28;20396;-84
2021/09/10 01:03:44;;;;;;;1999.90;999.90;;;21.00;99.90;;;;;;5076263;28;20773;-84
2021/09/10 01:06:11;;;;;;;1999.90;999.90;;;21.00;99.90;;;;;;5076957;28;20306;-83
2021/09/10 01:08:39;;;;;;;1999.90;999.90;;;20.90;99.90;;;;;;5079473;28;20168;-84
2021/09/10 01:11:05;;;;;;;1999.90;999.90;;;20.90;99.90;;;;;;5083981;28;20403;-84
2021/09/10 01:13:32;;;;;;;1999.90;999.90;;;20.90;99.90;;;;;;5082783;28;20434;-84
2021/09/10 01:15:59;;;;;;;1999.90;999.90;;;20.90;99.90;;;;;;5083225;28;20433;-84
2021/09/10 01:18:24;;;;;;;1999.90;999.90;;;20.90;99.90;;;;;;5083719;28;20426;-84
2021/09/10 01:20:50;;;;;;;1999.90;999.90;;;20.80;99.90;;;;;;5083086;28;20436;-84
2021/09/10 01:23:17;;;;;;;1999.90;999.90;;;20.80;99.90;;;;;;5081703;28;20171;-84
2021/09/10 01:25:43;;;;;;;1999.90;999.90;;;20.70;99.90;;;;;;5082272;28;20181;-84
2021/09/10 01:28:09;;;;;;;1999.90;999.90;;;20.70;99.90;;;;;;5082600;28;20404;-84
2021/09/10 01:30:36;;;;;;;1999.90;999.90;;;20.70;99.90;;;;;;5082291;28;20466;-84
2021/09/10 01:33:05;;;;;;;1999.90;999.90;;;20.60;99.90;;;;;;5083021;28;20425;-84
2021/09/10 01:35:31;;;;;;;1999.90;999.90;;;20.50;99.90;;;;;;5082940;28;20450;-85
2021/09/10 01:37:57;;;;;;;1999.90;999.90;;;20.50;99.90;;;;;;5081552;28;20421;-84
2021/09/10 01:40:23;;;;;;;1999.90;999.90;;;20.60;99.90;;;;;;5081556;28;20194;-85
2021/09/10 01:42:49;;;;;;;1999.90;999.90;;;20.60;99.90;;;;;;5080363;28;20984;-84
2021/09/10 01:45:16;;;;;;;1999.90;999.90;;;20.60;99.90;;;;;;5080467;28;20754;-84
2021/09/10 01:47:42;;;;;;;1999.90;999.90;;;20.60;99.90;;;;;;5080363;28;20457;-84
2021/09/10 01:50:10;;;;;;;1999.90;999.90;;;20.60;99.90;;;;;;5082746;28;20412;-84
2021/09/10 01:52:36;;;;;;;1999.90;999.90;;;20.60;99.90;;;;;;5081368;28;20395;-84
2021/09/10 01:55:02;;;;;;;1999.90;999.90;;;20.60;99.90;;;;;;5082504;28;20444;-84
2021/09/10 01:57:28;;;;;;;1999.90;999.90;;;20.60;99.90;;;;;;5064336;28;20236;-84
2021/09/10 01:59:53;;;;;;;1999.90;999.90;;;20.60;99.90;;;;;;5081698;28;20405;-84
2021/09/10 02:02:19;;;;;;;1999.90;999.90;;;20.50;99.90;;;;;;5081501;28;20181;-84
2021/09/10 02:04:45;;;;;;;1999.90;999.90;;;20.50;99.90;;;;;;5081676;28;20330;-84
2021/09/10 02:07:11;;;;;;;1999.90;999.90;;;20.50;99.90;;;;;;5081817;28;20936;-85
2021/09/10 02:09:36;;;;;;;1999.90;999.90;;;20.60;99.90;;;;;;5082544;28;20173;-84
2021/09/10 02:12:06;;;;;;;1999.90;999.90;;;20.60;99.90;;;;;;5080916;28;20168;-84
2021/09/10 02:14:32;;;;;;;1999.90;999.90;;;20.60;99.90;;;;;;5085344;28;20213;-84
2021/09/10 02:16:59;;;;;;;1999.90;999.90;;;20.70;99.90;;;;;;5086462;28;21001;-84
2021/09/10 02:19:25;;;;;;;1999.90;999.90;;;20.60;99.90;;;;;;5084823;28;20486;-84
2021/09/10 02:21:50;;;;;;;1999.90;999.90;;;20.60;99.90;;;;;;5086484;28;20422;-85
2021/09/10 02:24:17;;;;;;;1999.90;999.90;;;20.60;99.90;;;;;;5085079;28;20168;-84
2021/09/10 02:26:43;;;;;;;1999.90;999.90;;;20.70;99.90;;;;;;5086182;28;20268;-84
2021/09/10 02:29:09;;;;;;;1999.90;999.90;;;20.60;99.90;;;;;;5085358;28;20880;-84
2021/09/10 02:31:35;;;;;;;1999.90;999.90;;;20.60;99.90;;;;;;5085895;28;20408;-85
2021/09/10 02:34:00;;;;;;;1999.90;999.90;;;20.60;99.90;;;;;;5083552;28;20452;-84
2021/09/10 02:36:26;;;;;;;1999.90;999.90;;;20.60;99.90;;;;;;5084858;28;20190;-85
2021/09/10 02:38:52;;;;;;;1999.90;999.90;;;20.60;99.90;;;;;;5081480;28;20220;-83
2021/09/10 02:41:18;;;;;;;1999.90;999.90;;;20.50;99.90;;;;;;5079815;28;20974;-84
2021/09/10 02:43:44;;;;;;;1999.90;999.90;;;20.50;99.90;;;;;;5081284;28;20466;-84
2021/09/10 02:46:10;;;;;;;1999.90;999.90;;;20.40;99.90;;;;;;5079811;28;20693;-83
2021/09/10 02:48:35;;;;;;;1999.90;999.90;;;20.30;99.90;;;;;;5080398;28;20178;-84
2021/09/10 02:51:01;;;;;;;1999.90;999.90;;;20.40;99.90;;;;;;5078829;28;20178;-84
2021/09/10 02:53:27;;;;;;;1999.90;999.90;;;20.40;99.90;;;;;;5081021;28;20215;-84
2021/09/10 02:55:53;;;;;;;1999.90;999.90;;;20.40;99.90;;;;;;5081047;28;20520;-84
2021/09/10 02:58:18;;;;;;;1999.90;999.90;;;20.40;99.90;;;;;;5080454;28;20419;-83
2021/09/10 03:00:44;;;;;;;1999.90;999.90;;;20.40;99.90;;;;;;5080785;28;20157;-84
2021/09/10 03:03:10;;;;;;;1999.90;999.90;;;20.30;99.90;;;;;;5080890;28;20168;-84
2021/09/10 03:05:35;;;;;;;1999.90;999.90;;;20.30;99.90;;;;;;5080442;28;20168;-83
2021/09/10 03:08:01;;;;;;;1999.90;999.90;;;20.30;99.90;;;;;;5079690;28;20188;-84
2021/09/10 03:10:27;;;;;;;1999.90;999.90;;;20.20;99.90;;;;;;5079989;28;20180;-84
2021/09/10 03:12:53;;;;;;;1999.90;999.90;;;20.20;99.90;;;;;;5079378;28;20176;-84
2021/09/10 03:15:19;;;;;;;1999.90;999.90;;;20.20;99.90;;;;;;5079874;28;20919;-84
2021/09/10 03:17:44;;;;;;;1999.90;999.90;;;20.20;99.90;;;;;;5079304;28;20205;-84
2021/09/10 03:20:14;;;;;;;1999.90;999.90;;;20.10;99.90;;;;;;5079428;28;20190;-84
2021/09/10 03:22:40;;;;;;;1999.90;999.90;;;20.00;99.90;;;;;;5079730;28;20172;-84
2021/09/10 03:25:06;;;;;;;1999.90;999.90;;;20.00;99.90;;;;;;5078042;28;20410;-84
2021/09/10 03:27:32;;;;;;;1999.90;999.90;;;20.00;99.90;;;;;;5078117;28;20283;-83
2021/09/10 03:29:58;;;;;;;1999.90;999.90;;;20.00;99.90;;;;;;5080547;28;20439;-84
2021/09/10 03:32:24;;;;;;;1999.90;999.90;;;20.00;99.90;;;;;;5077967;28;20191;-84
2021/09/10 03:34:49;;;;;;;1999.90;999.90;;;20.00;99.90;;;;;;5079185;28;20197;-84
2021/09/10 03:37:15;;;;;;;1999.90;999.90;;;20.10;99.90;;;;;;5079378;28;20266;-84
2021/09/10 03:39:42;;;;;;;1999.90;999.90;;;20.00;99.90;;;;;;5078318;28;20166;-84
2021/09/10 03:42:08;;;;;;;1999.90;999.90;;;20.10;99.90;;;;;;5082437;28;20399;-83
2021/09/10 03:46:59;;;;;;;1999.90;999.90;;;20.10;99.90;;;;;;5141892;23;20486;-84
2021/09/10 03:49:26;;;;;;;1999.90;999.90;;;20.20;99.90;;;;;;5079169;28;20246;-84
2021/09/10 03:51:52;;;;;;;1999.90;999.90;;;20.20;99.90;;;;;;5078833;28;20817;-84
2021/09/10 03:54:18;;;;;;;1999.90;999.90;;;20.20;99.90;;;;;;5079010;28;20440;-84
2021/09/10 03:56:47;;;;;;;1999.90;999.90;;;20.20;99.90;;;;;;5078771;28;20422;-85
2021/09/10 03:59:12;;;;;;;1999.90;999.90;;;20.20;99.90;;;;;;5079105;28;20410;-84
2021/09/10 04:01:38;;;;;;;1999.90;999.90;;;20.10;99.90;;;;;;5079521;28;20411;-85
2021/09/10 04:04:04;;;;;;;1999.90;999.90;;;20.00;99.90;;;;;;5080418;28;20187;-85
2021/09/10 04:06:29;;;;;;;1999.90;999.90;;;20.00;99.90;;;;;;5078754;28;20190;-85
2021/09/10 04:08:55;;;;;;;1999.90;999.90;;;19.80;99.90;;;;;;5079948;28;20657;-82
2021/09/10 04:11:20;;;;;;;1999.90;999.90;;;19.80;99.90;;;;;;5081261;28;20178;-83
2021/09/10 04:13:46;;;;;;;1999.90;999.90;;;19.80;99.90;;;;;;5081776;28;20191;-83
2021/09/10 04:16:12;;;;;;;1999.90;999.90;;;19.80;99.90;;;;;;5081170;28;20176;-82
2021/09/10 04:18:38;;;;;;;1999.90;999.90;;;19.90;99.90;;;;;;5081061;28;20635;-83
2021/09/10 04:21:03;;;;;;;1999.90;999.90;;;19.90;99.90;;;;;;5078090;28;20174;-83
2021/09/10 04:23:29;;;;;;;1999.90;999.90;;;19.80;99.90;;;;;;5078192;28;20444;-83
2021/09/10 04:25:55;;;;;;;1999.90;999.90;;;19.90;99.90;;;;;;5082025;28;20202;-83
2021/09/10 04:28:21;;;;;;;1999.90;999.90;;;19.90;99.90;;;;;;5080368;28;20177;-83
2021/09/10 04:30:47;;;;;;;1999.90;999.90;;;19.90;99.90;;;;;;5079377;28;20176;-83
2021/09/10 04:33:12;;;;;;;1999.90;999.90;;;19.80;99.90;;;;;;5079537;28;20204;-83
2021/09/10 04:35:38;;;;;;;1999.90;999.90;;;19.80;99.90;;;;;;5077967;28;20657;-82
2021/09/10 04:38:04;;;;;;;1999.90;999.90;;;19.80;99.90;;;;;;5079435;28;20181;-82
2021/09/10 04:40:29;;;;;;;1999.90;999.90;;;19.90;99.90;;;;;;5078982;28;20181;-83
2021/09/10 04:42:55;;;;;;;1999.90;999.90;;;19.90;99.90;;;;;;5078044;28;20169;-83
2021/09/10 04:45:22;;;;;;;1999.90;999.90;;;19.90;99.90;;;;;;5078055;28;20184;-83
2021/09/10 04:47:48;;;;;;;1999.90;999.90;;;20.00;99.90;;;;;;5080132;28;20176;-83
2021/09/10 04:50:17;;;;;;;1999.90;999.90;;;19.90;99.90;;;;;;5078662;28;20956;-83
2021/09/10 04:52:42;;;;;;;1999.90;999.90;;;19.90;99.90;;;;;;5078882;28;20816;-82
2021/09/10 04:55:10;;;;;;;1999.90;999.90;;;19.80;99.90;;;;;;5078960;28;20502;-82
2021/09/10 04:57:36;;;;;;;1999.90;999.90;;;19.80;99.90;;;;;;5079331;28;20549;-83
2021/09/10 05:00:02;;;;;;;1999.90;999.90;;;19.80;99.90;;;;;;5079896;28;20428;-83
2021/09/10 05:02:30;;;;;;;1999.90;999.90;;;19.80;99.90;;;;;;5080130;28;20488;-83
2021/09/10 05:04:56;;;;;;;1999.90;999.90;;;19.80;99.90;;;;;;5078141;28;20403;-83
2021/09/10 05:07:22;;;;;;;1999.90;999.90;;;19.70;99.90;;;;;;5079580;28;20434;-83
2021/09/10 05:09:48;;;;;;;1999.90;999.90;;;19.70;99.90;;;;;;5080243;28;20654;-83
2021/09/10 05:12:15;;;;;;;1999.90;999.90;;;19.70;99.90;;;;;;5076746;28;20172;-82
2021/09/10 05:14:41;;;;;;;1999.90;999.90;;;19.70;99.90;;;;;;5078038;28;20196;-83
2021/09/10 05:17:06;;;;;;;1999.90;999.90;;;19.60;99.90;;;;;;5077358;28;20491;-82
2021/09/10 05:19:33;;;;;;;1999.90;999.90;;;19.60;99.90;;;;;;5078094;28;20172;-82
2021/09/10 05:21:59;;;;;;;1999.90;999.90;;;19.70;99.90;;;;;;5078727;28;20616;-82
2021/09/10 05:24:24;;;;;;;1999.90;999.90;;;19.70;99.90;;;;;;5078008;28;20402;-83
2021/09/10 05:26:50;;;;;;;1999.90;999.90;;;19.70;99.90;;;;;;5078047;28;20601;-82
2021/09/10 05:29:16;;;;;;;1999.90;999.90;;;19.70;99.90;;;;;;5078465;28;20195;-82
2021/09/10 05:31:42;;;;;;;1999.90;999.90;;;19.70;99.90;;;;;;5078029;28;20198;-82
2021/09/10 05:34:07;;;;;;;1999.90;999.90;;;19.60;99.90;;;;;;5077564;28;20275;-82
2021/09/10 05:36:33;;;;;;;1999.90;999.90;;;19.60;99.90;;;;;;5076388;28;20513;-82
2021/09/10 05:38:59;;;;;;;1999.90;999.90;;;19.50;99.90;;;;;;5077298;28;20228;-82
2021/09/10 05:41:25;;;;;;;1999.90;999.90;;;19.50;99.90;;;;;;5078483;28;20172;-82
2021/09/10 05:43:50;;;;;;;1999.90;999.90;;;19.60;99.90;;;;;;5078242;28;20161;-83
2021/09/10 05:46:16;;;;;;;1999.90;999.90;;;19.60;99.90;;;;;;5078457;28;20678;-83
2021/09/10 05:48:42;;;;;;;1999.90;999.90;;;19.50;99.90;;;;;;5077294;28;20162;-83
2021/09/10 05:51:11;;;;;;;1999.90;999.90;;;19.50;99.90;;;;;;5077844;28;20183;-83
2021/09/10 05:53:37;;;;;;;1999.90;999.90;;;19.60;99.90;;;;;;5077554;28;20676;-83
2021/09/10 05:56:03;;;;;;;1999.90;999.90;;;19.60;99.90;;;;;;5078117;28;20424;-83
2021/09/10 05:58:29;;;;;;;1999.90;999.90;;;19.60;99.90;;;;;;5078968;28;20896;-82
2021/09/10 06:00:54;;;;;;;1999.90;999.90;;;19.60;99.90;;;;;;5077290;28;20235;-83
2021/09/10 06:03:20;;;;;;;1999.90;999.90;;;19.70;99.90;;;;;;5079602;28;20165;-83
2021/09/10 06:05:46;;;;;;;1999.90;999.90;;;19.70;99.90;;;;;;5078297;28;20175;-82
2021/09/10 06:08:11;;;;;;;1999.90;999.90;;;19.70;99.90;;;;;;5077210;28;20173;-82
2021/09/10 06:10:37;;;;;;;1999.90;999.90;;;19.80;99.90;;;;;;5078523;28;20175;-83
2021/09/10 06:13:03;;;;;;;1999.90;999.90;;;19.80;99.90;;;;;;5078028;28;20176;-82
2021/09/10 06:15:29;;;;;;;1999.90;999.90;;;19.90;99.90;;;;;;5078979;28;20247;-83
2021/09/10 06:17:55;;;;;;;1999.90;999.90;;;19.90;99.90;;;;;;5079323;28;20188;-83
2021/09/10 06:20:20;;;;;;;1999.90;999.90;;;19.90;99.90;;;;;;5078454;28;20410;-83
2021/09/10 06:22:49;;;;;;;1999.90;999.90;;;20.00;99.90;;;;;;5079323;28;20519;-83
2021/09/10 06:25:14;;;;;;;1999.90;999.90;;;20.00;99.90;;;;;;5079940;28;20700;-83
2021/09/10 06:27:42;;;;;;;1999.90;999.90;;;20.00;99.90;;;;;;5078023;28;20440;-83
2021/09/10 06:30:08;;;;;;;1999.90;999.90;;;20.10;99.90;;;;;;5078954;28;20278;-83
2021/09/10 06:32:34;;;;;;;1999.90;999.90;;;20.10;99.90;;;;;;5080165;28;20968;-83
2021/09/10 06:35:03;;;;;;;1999.90;999.90;;;20.20;99.90;;;;;;5078798;28;20799;-82
2021/09/10 06:37:32;;;;;;;1999.90;999.90;;;20.30;99.90;;;;;;5078328;28;20449;-83
2021/09/10 06:40:02;;;;;;;1999.90;999.90;;;20.30;99.90;;;;;;5080097;28;20472;-83
2021/09/10 06:42:27;;;;;;;1999.90;999.90;;;20.30;99.90;;;;;;5078092;28;20411;-83
2021/09/10 06:44:54;;;;;;;1999.90;999.90;;;20.40;99.90;;;;;;5079959;28;20777;-83
2021/09/10 06:47:20;;;;;;;1999.90;999.90;;;20.50;99.90;;;;;;5079775;28;20203;-83
2021/09/10 06:49:49;;;;;;;1999.90;999.90;;;20.50;99.90;;;;;;5079607;28;20408;-82
2021/09/10 06:52:15;;;;;;;1999.90;999.90;;;20.70;99.90;;;;;;5079272;28;20743;-83
2021/09/10 06:54:44;;;;;;;1999.90;999.90;;;20.70;99.90;;;;;;5081222;28;20856;-83
2021/09/10 06:57:10;;;;;;;1999.90;999.90;;;20.80;99.90;;;;;;5080608;28;20428;-83
2021/09/10 06:59:35;;;;;;;1999.90;999.90;;;20.90;99.90;;;;;;5081542;28;20405;-83
2021/09/10 07:02:01;;;;;;;1999.90;999.90;;;20.90;99.90;;;;;;5084650;28;20197;-83
2021/09/10 07:04:27;;;;;;;1999.90;999.90;;;21.00;99.90;;;;;;5085400;28;20199;-84
2021/09/10 07:06:52;;;;;;;1999.90;999.90;;;20.90;99.90;;;;;;5085189;28;20689;-83
2021/09/10 07:09:18;;;;;;;1999.90;999.90;;;21.00;99.90;;;;;;5083871;28;20574;-82
2021/09/10 07:11:44;;;;;;;1999.90;999.90;;;20.90;99.90;;;;;;5080797;28;20186;-83
2021/09/10 07:14:12;;;;;;;1999.90;999.90;;;20.90;99.90;;;;;;5080920;28;20611;-83
2021/09/10 07:16:40;;;;;;;1999.90;999.90;;;20.90;99.90;;;;;;5081542;28;20190;-84
2021/09/10 07:19:05;;;;;;;1999.90;999.90;;;20.80;99.90;;;;;;5083454;28;20931;-84
2021/09/10 07:21:31;;;;;;;1999.90;999.90;;;20.80;99.90;;;;;;5082080;28;20402;-83
2021/09/10 07:23:57;;;;;;;1999.90;999.90;;;20.80;99.90;;;;;;5084265;28;20168;-84
2021/09/10 07:26:24;;;;;;;1999.90;999.90;;;20.90;99.90;;;;;;5082977;28;20184;-83
2021/09/10 07:28:50;;;;;;;1999.90;999.90;;;20.90;99.90;;;;;;5083160;28;20156;-84
2021/09/10 07:31:16;;;;;;;1999.90;999.90;;;20.90;99.90;;;;;;5083138;28;20399;-84
2021/09/10 07:33:43;;;;;;;1999.90;999.90;;;21.00;99.90;;;;;;5083273;28;20438;-84
2021/09/10 07:36:09;;;;;;;1999.90;999.90;;;20.90;99.90;;;;;;5083842;28;20218;-84
2021/09/10 07:38:36;;;;;;;1999.90;999.90;;;21.00;99.90;;;;;;5084304;28;20473;-84
2021/09/10 07:41:03;;;;;;;1999.90;999.90;;;20.90;99.90;;;;;;5084554;28;20968;-84
2021/09/10 07:43:29;;;;;;;1999.90;999.90;;;20.90;99.90;;;;;;5084740;28;20406;-84
2021/09/10 07:45:55;;;;;;;1999.90;999.90;;;20.90;99.90;;;;;;5084643;28;20416;-84
2021/09/10 07:48:20;;;;;;;1999.90;999.90;;;21.00;99.90;;;;;;5083940;28;20171;-83
2021/09/10 07:50:46;;;;;;;1999.90;999.90;;;21.00;99.90;;;;;;5082854;28;20195;-84
2021/09/10 07:53:12;;;;;;;1999.90;999.90;;;21.10;99.90;;;;;;5084003;28;20171;-84
2021/09/10 07:55:38;;;;;;;1999.90;999.90;;;21.10;99.90;;;;;;5085386;28;20235;-83
2021/09/10 07:58:04;;;;;;;1999.90;999.90;;;21.20;99.90;;;;;;5082484;28;20512;-83
2021/09/10 08:00:30;;;;;;;1999.90;999.90;;;21.30;99.90;;;;;;5084812;28;20168;-83
2021/09/10 08:02:56;;;;;;;1999.90;999.90;;;21.30;99.90;;;;;;5082311;28;20398;-86
2021/09/10 08:05:24;;;;;;;1999.90;999.90;;;21.40;99.90;;;;;;5079467;28;20230;-86
2021/09/10 08:07:50;;;;;;;1999.90;999.90;;;21.50;99.90;;;;;;5081756;28;20466;-86
2021/09/10 08:10:17;;;;;;;1999.90;999.90;;;21.60;99.90;;;;;;5081594;28;20398;-85
2021/09/10 08:12:46;;;;;;;1999.90;999.90;;;21.60;99.90;;;;;;5080465;28;20164;-86
2021/09/10 08:15:14;;;;;;;1999.90;999.90;;;21.70;99.90;;;;;;5081763;28;20536;-86
2021/09/10 08:17:40;;;;;;;1999.90;999.90;;;21.70;99.90;;;;;;5081012;28;20936;-85
2021/09/10 08:20:10;;;;;;;1999.90;999.90;;;21.70;99.90;;;;;;5079517;28;20421;-86
2021/09/10 08:22:36;;;;;;;1999.90;999.90;;;21.70;99.90;;;;;;5078273;28;20777;-86
2021/09/10 08:25:04;;;;;;;1999.90;999.90;;;21.70;99.90;;;;;;5079555;28;20778;-86
2021/09/10 08:27:30;;;;;;;1999.90;999.90;;;21.80;99.90;;;;;;5079626;28;20450;-86
2021/09/10 08:29:56;;;;;;;1999.90;999.90;;;21.90;99.90;;;;;;5078797;28;20469;-86
2021/09/10 08:32:23;;;;;;;1999.90;999.90;;;21.90;99.90;;;;;;5079919;28;20648;-86
2021/09/10 08:34:50;;;;;;;1999.90;999.90;;;22.00;99.90;;;;;;5078331;28;20446;-86
2021/09/10 08:37:15;;;;;;;1999.90;999.90;;;22.20;99.90;;;;;;5080384;28;20426;-85
2021/09/10 08:39:41;;;;;;;1999.90;999.90;;;22.20;99.90;;;;;;5079597;28;20739;-86
2021/09/10 08:42:07;;;;;;;1999.90;999.90;;;22.30;99.90;;;;;;5079439;28;20213;-86
2021/09/10 08:44:34;;;;;;;1999.90;999.90;;;22.40;99.90;;;;;;5078309;28;20167;-85
2021/09/10 08:47:00;;;;;;;1999.90;999.90;;;22.40;99.90;;;;;;5078489;28;20990;-85
2021/09/10 08:49:26;;;;;;;1999.90;999.90;;;22.50;99.90;;;;;;5080261;28;20425;-85
2021/09/10 08:51:52;;;;;;;1999.90;999.90;;;22.60;99.90;;;;;;5079015;28;20185;-85
2021/09/10 08:54:18;;;;;;;1999.90;999.90;;;22.70;99.90;;;;;;5081185;28;20184;-85
2021/09/10 08:56:44;;;;;;;1999.90;999.90;;;22.90;99.90;;;;;;5079280;28;20188;-86
2021/09/10 08:59:17;;;;;;;1999.90;999.90;;;23.00;99.90;;;;;;5080666;28;20996;-85
2021/09/10 09:01:59;;;;;;;1999.90;999.90;;;23.20;99.90;;;;;;5080509;28;20389;-85
2021/09/10 09:04:38;;;;;;;1999.90;999.90;;;23.10;99.90;;;;;;5080904;28;20404;-85
2021/09/10 09:07:09;;;;;;;1999.90;999.90;;;23.20;99.90;;;;;;5079298;28;20430;-85
2021/09/10 09:09:45;;;;;;;1999.90;999.90;;;23.40;99.90;;;;;;5079588;28;20422;-85
2021/09/10 09:12:19;;;;;;;1999.90;999.90;;;23.50;99.90;;;;;;5080920;28;20391;-85
2021/09/10 09:14:53;;;;;;;1999.90;999.90;;;23.70;99.90;;;;;;5079154;28;20446;-85
2021/09/10 09:17:19;;;;;;;1999.90;999.90;;;23.80;99.90;;;;;;5079015;28;20433;-85
2021/09/10 09:19:45;;;;;;;1999.90;999.90;;;23.90;99.90;;;;;;5079449;28;20395;-83
2021/09/10 09:22:11;;;;;;;1999.90;999.90;;;23.90;99.90;;;;;;5077045;28;20411;-83
2021/09/10 09:24:36;;;;;;;1999.90;999.90;;;24.00;99.90;;;;;;5080353;28;20171;-83
2021/09/10 09:27:08;;;;;;;1999.90;999.90;;;23.90;99.90;;;;;;5078948;28;20195;-83
2021/09/10 09:29:49;;;;;;;1999.90;999.90;;;23.90;99.90;;;;;;5078084;28;20156;-83
2021/09/10 09:32:15;;;;;;;1999.90;999.90;;;24.00;99.90;;;;;;5080366;28;20396;-83
2021/09/10 09:34:48;;;;;;;1999.90;999.90;;;24.00;99.90;;;;;;5079966;28;20497;-83
2021/09/10 09:37:15;;;;;;;1999.90;999.90;;;24.00;99.90;;;;;;5060325;28;20184;-83
2021/09/10 09:39:53;;;;;;;1999.90;999.90;;;24.00;99.90;;;;;;5077448;28;20449;-83
2021/09/10 09:42:31;;;;;;;1999.90;999.90;;;24.00;99.90;;;;;;5077525;28;20414;-83
2021/09/10 09:47:33;;;;;;;1999.90;999.90;;;24.10;99.90;;;;;;5124977;23;20539;-87
2021/09/10 09:50:14;;;;;;;1999.90;999.90;;;24.00;99.90;;;;;;5075332;28;20923;-87
2021/09/10 09:52:43;;;;;;;1999.90;999.90;;;24.10;99.90;;;;;;5074665;28;20393;-87
2021/09/10 09:55:12;;;;;;;1999.90;999.90;;;24.30;99.90;;;;;;5073594;28;20965;-87
2021/09/10 09:57:42;;;;;;;1999.90;999.90;;;24.30;99.90;;;;;;5077064;28;20423;-86
2021/09/10 10:00:08;;;;;;;1999.90;999.90;;;24.30;99.90;;;;;;5078008;28;20390;-86
2021/09/10 10:02:35;;;;;;;1999.90;999.90;;;24.20;99.90;;;;;;5077063;28;20417;-86
2021/09/10 10:05:10;;;;;;;1999.90;999.90;;;24.00;99.90;;;;;;5080155;28;20399;-86
2021/09/10 10:07:57;;;;;;;1999.90;999.90;;;24.00;99.90;;;;;;5076002;28;20429;-86
2021/09/10 10:10:53;;;;;;;1999.90;999.90;;;23.90;99.90;;;;;;5075562;28;20415;-86
2021/09/10 10:16:44;;;;;;;1999.90;999.90;;;23.60;99.90;;;;;;5071055;28;20437;-85
2021/09/10 10:19:24;;;;;;;1999.90;999.90;;;23.50;99.90;;;;;;5075516;28;20423;-85
2021/09/10 10:21:54;;;;;;;1999.90;999.90;;;23.20;99.90;;;;;;5076014;28;20405;-85
2021/09/10 10:24:38;;;;;;;1999.90;999.90;;;23.20;99.90;;;;;;5075374;28;20379;-85
2021/09/10 10:27:40;;;;;;;1999.90;999.90;;;23.00;99.90;;;;;;5074261;28;20454;-85
2021/09/10 10:30:25;;;;;;;1999.90;999.90;;;23.00;99.90;;;;;;5075213;28;20432;-86
2021/09/10 10:32:52;;;;;;;1999.90;999.90;;;23.10;99.90;;;;;;5074300;28;20398;-85
2021/09/10 10:35:27;;;;;;;1999.90;999.90;;;23.10;99.90;;;;;;5078056;28;20975;-85
2021/09/10 10:38:02;;;;;;;1999.90;999.90;;;23.00;99.90;;;;;;5077209;28;20486;-85
2021/09/10 10:40:29;;;;;;;1999.90;999.90;;;23.00;99.90;;;;;;5079505;28;20413;-85
2021/09/10 10:42:59;;;;;;;1999.90;999.90;;;23.10;99.90;;;;;;5080134;28;20398;-85
2021/09/10 10:45:44;;;;;;;1999.90;999.90;;;23.00;99.90;;;;;;5080938;28;20952;-84
2021/09/10 10:50:58;;;;;;;1999.90;999.90;;;23.00;99.90;;;;;;5081067;28;20897;-85
2021/09/10 10:53:23;;;;;;;1999.90;999.90;;;23.00;99.90;;;;;;5080844;28;20438;-85
2021/09/10 10:55:49;;;;;;;1999.90;999.90;;;22.90;99.90;;;;;;5078418;28;20440;-85
2021/09/10 10:58:26;;;;;;;1999.90;999.90;;;22.80;99.90;;;;;;5079046;28;20398;-86
2021/09/10 11:01:02;;;;;;;1999.90;999.90;;;22.80;99.90;;;;;;5076859;28;20170;-86
2021/09/10 11:03:28;;;;;;;1999.90;999.90;;;22.90;99.90;;;;;;5077061;28;20409;-86
2021/09/10 11:05:56;;;;;;;1999.90;999.90;;;23.00;99.90;;;;;;5077134;28;20812;-85
2021/09/10 11:08:43;;;;;;;1999.90;999.90;;;23.00;99.90;;;;;;5077953;28;20183;-86
2021/09/10 11:11:11;;;;;;;1999.90;999.90;;;23.10;99.90;;;;;;5079419;28;20406;-86
2021/09/10 11:13:43;;;;;;;1999.90;999.90;;;23.20;99.90;;;;;;5078820;28;20857;-86
2021/09/10 11:19:00;;;;;;;1999.90;999.90;;;23.60;99.90;;;;;;5182062;23;20477;-86
2021/09/10 11:21:46;;;;;;;1999.90;999.90;;;23.80;99.90;;;;;;5074716;28;20430;-87
2021/09/10 11:24:15;;;;;;;1999.90;999.90;;;24.00;99.90;;;;;;5077544;28;20462;-87
2021/09/10 11:26:44;;;;;;;1999.90;999.90;;;24.10;99.90;;;;;;5075496;28;20433;-86
2021/09/10 11:29:22;;;;;;;1999.90;999.90;;;24.20;99.90;;;;;;5075451;28;20403;-87
2021/09/10 11:31:50;;;;;;;1999.90;999.90;;;24.40;99.90;;;;;;5076933;28;20436;-87
2021/09/10 11:34:35;;;;;;;1999.90;999.90;;;24.60;99.90;;;;;;5075015;28;20450;-87
2021/09/10 11:37:04;;;;;;;1999.90;999.90;;;24.80;99.90;;;;;;5074898;28;20473;-86
2021/09/10 11:39:42;;;;;;;1999.90;999.90;;;24.90;99.90;;;;;;5076050;28;20403;-86
2021/09/10 11:42:08;;;;;;;1999.90;999.90;;;25.00;99.90;;;;;;5074736;28;20418;-87
2021/09/10 11:44:33;;;;;;;1999.90;999.90;;;25.00;99.90;;;;;;5076296;28;20415;-86
2021/09/10 11:46:59;;;;;;;1999.90;999.90;;;24.80;99.90;;;;;;5074670;28;20188;-87
2021/09/10 11:49:25;;;;;;;1999.90;999.90;;;24.80;99.90;;;;;;5076127;28;20168;-87
2021/09/10 11:51:59;;;;;;;1999.90;999.90;;;25.10;99.90;;;;;;5075992;28;20681;-87
2021/09/10 11:54:27;;;;;;;1999.90;999.90;;;25.30;99.90;;;;;;5077577;28;20446;-86
2021/09/10 11:56:53;;;;;;;1999.90;999.90;;;25.20;99.90;;;;;;5079462;28;20500;-86
2021/09/10 11:59:25;;;;;;;1999.90;999.90;;;25.30;99.90;;;;;;5079181;28;20800;-86
2021/09/10 12:01:52;;;;;;;1999.90;999.90;;;25.30;99.90;;;;;;5077549;28;20198;-86
2021/09/10 12:04:27;;;;;;;1999.90;999.90;;;25.50;99.90;;;;;;5078888;28;20499;-86
2021/09/10 12:06:57;;;;;;;1999.90;999.90;;;25.50;99.90;;;;;;5077918;28;20960;-86
2021/09/10 12:09:25;;;;;;;1999.90;999.90;;;25.60;99.90;;;;;;5078530;28;20410;-86
2021/09/10 12:12:18;;;;;;;1999.90;999.90;;;25.40;99.90;;;;;;5077685;28;20400;-86
2021/09/10 12:14:52;;;;;;;1999.90;999.90;;;25.40;99.90;;;;;;5078862;28;20439;-86